• Join FlightAware (Why Join?)
  • Login
  • US Flag 
Rudolph Flight #1: Scheduled 
07:53PM EST


 

Airport Tracker/Info


-or-


 

Live Flight TrackerFlight Track Log ✈ N446ND ✈ 26-Oct-2013 ✈ KDAB - KFPR

Flight Track Log - Related Links

Times and Time Zones

All times are in EDT time to prevent confusion due to time zone crossing. See the N446ND flight status page for this flight to view local times or setup timezone preferences in your user account.

Time Position Orientation Groundspeed Altitude Reporting Facility
EDT Latitude Longitude Course Direction KTS MPH feet Rate Location/Type
05:58PM 28.9975 -80.9839 169° South 102 117 3,500  Level Jacksonville Center
05:59PM 28.9683 -80.9772 169° South 110 127 3,500  Level Jacksonville Center
06:01PM 28.9000 -80.9667 172° South 108 124 3,500 -60 Level Orlando TRACON
06:02PM 28.8833 -80.9500 139° Southeast 111 128 3,400  Descending Orlando TRACON
06:03PM 28.8500 -80.9500 180° South 108 124 3,500  Climbing Orlando TRACON
06:04PM 28.8333 -80.9167 120° Southeast 112 129 3,500  Level Orlando TRACON
06:05PM 28.8000 -80.9000 156° South 117 135 3,500  Level Orlando TRACON
06:06PM 28.7667 -80.9000 180° South 113 130 3,500  Level Orlando TRACON
06:07PM 28.7333 -80.9000 180° South 113 130 3,500  Level Orlando TRACON
06:09PM 28.6859 -80.8786 158° South  Level FlightAware Approximate
06:10PM 28.6500 -80.8500 158° South 103 119 3,500  Level Orlando TRACON
06:11PM 28.6167 -80.8500 180° South 105 121 3,500 -60 Level Orlando TRACON
06:12PM 28.6000 -80.8333 139° Southeast 109 125 3,400  Descending Orlando TRACON
06:13PM 28.5667 -80.8333 180° South 100 115 3,500  Climbing Orlando TRACON
06:14PM 28.5333 -80.8167 156° South 107 123 3,500  Level Orlando TRACON
06:15PM 28.5000 -80.8167 180° South 107 123 3,500  Level Orlando TRACON
06:16PM 28.4275 -80.7619 158° South  Level FlightAware Approximate
06:16PM 28.4833 -80.8000 139° Southeast 114 131 3,500  Level Orlando TRACON
06:17PM 28.4500 -80.7833 156° South 113 130 3,500  Level Orlando TRACON
06:18PM 28.4167 -80.7667 156° South 112 129 3,500  Level Orlando TRACON
06:19PM 28.4000 -80.7500 139° Southeast 113 130 3,500  Level Orlando TRACON
06:20PM 28.3667 -80.7500 180° South 116 133 3,500  Level Orlando TRACON
06:21PM 28.3333 -80.7333 156° South 110 127 3,600  Climbing Orlando TRACON
06:22PM 28.3000 -80.7167 156° South 113 130 3,500 -60 Descending Orlando TRACON
06:23PM 28.2667 -80.7000 156° South 120 138 3,500  Level Orlando TRACON
06:25PM 28.2239 -80.6796 157° South  Level FlightAware Approximate
06:26PM 28.1833 -80.6667 157° South 116 133 3,500  Level Orlando TRACON
06:28PM 28.1300 -80.6378 154° Southeast 107 123 3,500  Level Miami Center
06:29PM 28.1078 -80.6086 131° Southeast 107 123 3,500  Level Miami Center
06:30PM 28.0917 -80.5869 130° Southeast 102 117 3,500  Level Miami Center
06:31PM 28.0692 -80.5675 143° Southeast 102 117 3,500  Level Miami Center
06:32PM 27.9676 -80.5575 157° South  Level FlightAware Approximate
06:32PM 28.0403 -80.5478 149° Southeast 102 117 3,600  Level Miami Center
06:33PM 28.0158 -80.5306 148° Southeast 102 117 3,500 -60 Descending Miami Center
06:34PM 27.9933 -80.5086 139° Southeast 102 117 3,500  Level Miami Center
06:35PM 27.9708 -80.4914 146° Southeast 102 117 3,500  Level Miami Center
06:36PM 27.9442 -80.4717 147° Southeast 102 117 3,600  Climbing Miami Center
06:37PM 27.9175 -80.4544 150° Southeast 102 117 3,500 -60 Descending Miami Center
06:38PM 27.8908 -80.4347 147° Southeast 107 123 3,500  Level Miami Center
06:39PM 27.8642 -80.4222 157° South 107 123 3,500  Level Miami Center
06:40PM 27.8372 -80.4097 158° South 112 129 3,500  Level Miami Center
06:41PM 27.8061 -80.3992 163° South 107 123 3,500  Level Miami Center
06:42PM 27.7769 -80.3961 175° South 107 123 3,500  Level Miami Center
06:43PM 27.7481 -80.3858 163° South 107 123 3,600 -60 Climbing Miami Center
06:44PM 27.7211 -80.3778 165° South 107 123 3,400 -420 Descending Miami Center
06:45PM 27.6942 -80.3678 162° South 107 123 2,800 -600 Descending Miami Center
06:47PM 27.6507 -80.3689 160° South  Level Estimated